Time;durP1;ratioP1;P1;durP2;ratioP2;P2;SDS_P1;SDS_P2;PMS_P1;PMS_P2;Temp;Humidity;BMP_temperature;BMP_pressure;BME280_temperature;BME280_humidity;BME280_pressure;Samples;Min_cycle;Max_cycle;Signal;HPM_P1;HPM_P2
2023/06/07 00:01:37;;;;;;;5.28;0.98;;;22.20;37.30;;;;;;2314256;55;20956;-72
2023/06/07 00:04:03;;;;;;;2.35;1.10;;;22.20;37.50;;;;;;2314880;55;21015;-72
2023/06/07 00:06:32;;;;;;;2.40;1.00;;;22.10;37.50;;;;;;2553473;54;21023;-70
2023/06/07 00:08:59;;;;;;;2.90;1.10;;;22.10;37.50;;;;;;2314800;55;21016;-72
2023/06/07 00:11:26;;;;;;;2.50;0.98;;;22.10;37.50;;;;;;2554227;54;21608;-73
2023/06/07 00:13:52;;;;;;;2.40;1.00;;;22.00;37.50;;;;;;2555040;54;21903;-72
2023/06/07 00:16:24;;;;;;;2.25;1.05;;;22.00;37.60;;;;;;2287400;54;20957;-71
2023/06/07 00:18:51;;;;;;;2.28;1.02;;;22.00;37.80;;;;;;2283999;55;21417;-71
2023/06/07 00:21:19;;;;;;;2.60;1.10;;;21.90;37.70;;;;;;2522002;54;20922;-71
2023/06/07 00:23:49;;;;;;;2.95;1.00;;;21.90;37.70;;;;;;2522691;54;21435;-72
2023/06/07 00:26:15;;;;;;;2.22;1.05;;;21.80;37.80;;;;;;2521583;54;21680;-74
2023/06/07 00:28:42;;;;;;;2.47;1.15;;;21.80;38.60;;;;;;2529196;54;21047;-72
2023/06/07 00:31:08;;;;;;;2.60;1.30;;;21.70;38.00;;;;;;2295991;55;20979;-71
2023/06/07 00:33:34;;;;;;;2.83;1.20;;;21.70;38.10;;;;;;2287123;55;21026;-72
2023/06/07 00:36:01;;;;;;;2.30;1.00;;;21.60;38.10;;;;;;2288234;55;20978;-73
2023/06/07 00:38:27;;;;;;;3.20;1.25;;;21.60;38.10;;;;;;2521776;54;20934;-71
2023/06/07 00:40:54;;;;;;;2.42;1.10;;;21.50;38.10;;;;;;2285543;54;20994;-71
2023/06/07 00:43:24;;;;;;;2.20;0.90;;;21.50;38.20;;;;;;2287236;54;20972;-73
2023/06/07 00:45:50;;;;;;;2.55;1.33;;;21.40;38.10;;;;;;2287938;54;21776;-71
2023/06/07 00:48:17;;;;;;;2.70;1.20;;;21.40;38.30;;;;;;2287387;54;21750;-72
2023/06/07 00:50:45;;;;;;;2.87;1.35;;;21.30;38.40;;;;;;2522687;54;21017;-71
2023/06/07 00:53:12;;;;;;;2.85;1.30;;;21.20;38.50;;;;;;2287981;55;20990;-72
2023/06/07 00:55:38;;;;;;;2.62;1.30;;;21.20;38.70;;;;;;2520650;54;20959;-71
2023/06/07 00:58:06;;;;;;;2.75;1.50;;;21.20;38.90;;;;;;2522171;54;20973;-71
2023/06/07 01:00:32;;;;;;;3.08;1.35;;;21.10;38.90;;;;;;2535080;53;21920;-73
2023/06/07 01:03:00;;;;;;;3.12;1.40;;;21.10;38.90;;;;;;2525215;53;20942;-72
2023/06/07 01:05:26;;;;;;;2.53;1.25;;;21.00;38.90;;;;;;2283376;55;21037;-71
2023/06/07 01:07:55;;;;;;;2.97;1.23;;;20.90;39.10;;;;;;2493469;55;21025;-71
2023/06/07 01:10:22;;;;;;;3.55;1.23;;;20.90;39.20;;;;;;2286515;54;21890;-72
2023/06/07 01:12:49;;;;;;;2.50;1.40;;;20.90;39.30;;;;;;2287838;54;21037;-71
2023/06/07 01:15:16;;;;;;;2.92;1.17;;;20.80;39.40;;;;;;2521635;54;21002;-72
2023/06/07 01:17:48;;;;;;;5.37;1.37;;;20.70;39.30;;;;;;2286557;55;20988;-72
2023/06/07 01:20:29;;;;;;;2.15;1.08;;;20.70;39.40;;;;;;2287625;54;20954;-72
2023/06/07 01:22:57;;;;;;;2.60;1.20;;;20.60;39.40;;;;;;2554373;53;20960;-71
2023/06/07 01:25:24;;;;;;;3.35;1.30;;;20.60;39.40;;;;;;2287183;54;20958;-72
2023/06/07 01:27:52;;;;;;;2.05;1.00;;;20.50;39.50;;;;;;2524335;54;20952;-72
2023/06/07 01:30:18;;;;;;;4.37;1.35;;;20.50;39.60;;;;;;2537886;53;21411;-73
2023/06/07 01:32:45;;;;;;;2.80;1.40;;;20.40;39.50;;;;;;2520218;54;20964;-74
2023/06/07 01:35:12;;;;;;;2.30;1.08;;;20.40;39.70;;;;;;2288142;54;20930;-72
2023/06/07 01:37:38;;;;;;;2.70;1.40;;;20.30;39.70;;;;;;2521658;54;21025;-72
2023/06/07 01:40:05;;;;;;;2.25;1.10;;;20.30;39.80;;;;;;2288075;54;20950;-72
2023/06/07 01:42:36;;;;;;;2.80;1.30;;;20.20;39.90;;;;;;2273903;55;20923;-71
2023/06/07 01:45:06;;;;;;;3.28;1.30;;;20.20;39.90;;;;;;2520240;54;21055;-73
2023/06/07 01:47:32;;;;;;;2.67;1.20;;;20.20;40.10;;;;;;2286736;54;20962;-71
2023/06/07 01:50:00;;;;;;;3.20;1.30;;;20.10;40.00;;;;;;2288211;54;20997;-72
2023/06/07 01:52:27;;;;;;;2.70;1.40;;;20.10;40.20;;;;;;2528144;53;21753;-72
2023/06/07 01:54:57;;;;;;;3.35;1.65;;;20.00;40.30;;;;;;2526872;54;21560;-72
2023/06/07 01:59:04;;;;;;;2.60;1.20;;;20.00;40.30;;;;;;2521096;54;21090;-72
2023/06/07 02:01:36;;;;;;;2.92;1.35;;;19.90;40.60;;;;;;2289580;55;21699;-71
2023/06/07 02:04:04;;;;;;;2.90;1.27;;;19.90;40.20;;;;;;2288127;54;20945;-71
2023/06/07 02:06:32;;;;;;;2.90;1.48;;;19.80;40.20;;;;;;2520690;54;21190;-71
2023/06/07 02:09:02;;;;;;;2.78;1.12;;;19.70;40.20;;;;;;2522697;54;20973;-72
2023/06/07 02:11:31;;;;;;;2.80;1.42;;;19.70;40.40;;;;;;2292150;55;21069;-72
2023/06/07 02:13:57;;;;;;;2.70;1.50;;;19.60;40.40;;;;;;2289153;54;20938;-73
2023/06/07 02:16:35;;;;;;;3.83;1.45;;;19.60;40.60;;;;;;2287611;55;20930;-71
2023/06/07 02:19:07;;;;;;;3.20;1.48;;;19.60;41.00;;;;;;2287941;54;21030;-73
2023/06/07 02:21:35;;;;;;;6.28;1.60;;;19.50;40.70;;;;;;2522299;54;20998;-73
2023/06/07 02:24:01;;;;;;;2.90;1.50;;;19.50;40.80;;;;;;2287201;55;21002;-72
2023/06/07 02:26:30;;;;;;;3.05;1.65;;;19.40;40.80;;;;;;2521995;54;20986;-72
2023/06/07 02:28:58;;;;;;;2.90;1.50;;;19.40;41.10;;;;;;2310558;56;20917;-71
2023/06/07 02:31:25;;;;;;;3.03;1.60;;;19.30;40.90;;;;;;2553967;53;20896;-71
2023/06/07 02:33:52;;;;;;;3.35;1.40;;;19.30;41.20;;;;;;2551240;53;21006;-71
2023/06/07 02:36:21;;;;;;;3.30;1.40;;;19.20;41.20;;;;;;2309944;55;21409;-72
2023/06/07 02:38:48;;;;;;;3.00;1.50;;;19.10;41.30;;;;;;2553977;53;20955;-73
2023/06/07 02:41:15;;;;;;;2.83;1.40;;;19.10;41.40;;;;;;2313871;55;21314;-71
2023/06/07 02:43:42;;;;;;;3.08;1.42;;;19.00;41.30;;;;;;2554470;53;20931;-71
2023/06/07 02:46:15;;;;;;;3.22;1.58;;;19.00;41.50;;;;;;2554895;53;21377;-73
2023/06/07 02:48:41;;;;;;;2.87;1.42;;;18.90;41.40;;;;;;2555030;53;20971;-71
2023/06/07 02:51:08;;;;;;;2.55;1.35;;;18.90;41.50;;;;;;2555184;53;20971;-72
2023/06/07 02:53:34;;;;;;;3.03;1.40;;;18.90;41.50;;;;;;2314140;55;22215;-72
2023/06/07 02:56:01;;;;;;;3.08;1.70;;;18.80;41.50;;;;;;2554780;53;20947;-71
2023/06/07 02:58:31;;;;;;;5.43;1.75;;;18.80;41.60;;;;;;2314051;55;20964;-72
2023/06/07 03:00:58;;;;;;;2.92;1.42;;;18.60;41.60;;;;;;2293536;54;20977;-71
2023/06/07 03:03:25;;;;;;;3.03;1.50;;;18.70;41.90;;;;;;2287980;54;20946;-72
2023/06/07 03:05:52;;;;;;;3.35;1.40;;;18.70;41.90;;;;;;2288475;54;21062;-72
2023/06/07 03:08:19;;;;;;;3.00;1.50;;;18.60;41.80;;;;;;2522736;54;20950;-72
2023/06/07 03:10:46;;;;;;;2.85;1.55;;;18.60;41.90;;;;;;2522857;54;20957;-72
2023/06/07 03:13:13;;;;;;;4.22;1.70;;;18.60;42.00;;;;;;2276752;55;20997;-73
2023/06/07 03:15:39;;;;;;;2.58;1.37;;;18.50;41.90;;;;;;2508617;54;20994;-71
2023/06/07 03:18:08;;;;;;;3.03;1.52;;;18.40;42.00;;;;;;2522810;54;20994;-72
2023/06/07 03:20:35;;;;;;;5.25;1.70;;;18.40;42.20;;;;;;2517346;54;21038;-71
2023/06/07 03:23:08;;;;;;;3.20;1.48;;;18.40;42.30;;;;;;2518369;54;20966;-72
2023/06/07 03:25:35;;;;;;;2.80;1.30;;;18.30;42.40;;;;;;2521806;54;21359;-72
2023/06/07 03:28:02;;;;;;;3.55;1.50;;;18.30;42.30;;;;;;2514092;55;20938;-71
2023/06/07 03:30:28;;;;;;;2.85;1.50;;;18.30;42.40;;;;;;2521118;54;20942;-71
2023/06/07 03:32:58;;;;;;;3.17;1.30;;;18.20;42.40;;;;;;2298112;54;20959;-71
2023/06/07 03:35:27;;;;;;;3.53;1.58;;;18.20;42.40;;;;;;2295043;55;21029;-71
2023/06/07 03:37:54;;;;;;;2.90;1.48;;;18.20;42.50;;;;;;2521737;54;20970;-71
2023/06/07 03:40:20;;;;;;;3.08;1.50;;;18.10;42.40;;;;;;2486214;55;21327;-71
2023/06/07 03:42:59;;;;;;;;;;;;;;;;;;;;;
2023/06/07 03:45:31;;;;;;;3.30;1.60;;;18.00;42.50;;;;;;2286566;55;20968;-70
2023/06/07 03:48:01;;;;;;;2.90;1.50;;;18.00;42.50;;;;;;2287240;54;21008;-70
2023/06/07 03:50:37;;;;;;;3.40;1.70;;;18.00;42.50;;;;;;2287160;55;20930;-71
2023/06/07 03:53:11;;;;;;;3.53;1.50;;;17.90;42.50;;;;;;2522921;54;20938;-71
2023/06/07 03:55:41;;;;;;;4.80;1.65;;;17.90;42.60;;;;;;2300452;54;20987;-74
2023/06/07 03:58:24;;;;;;;3.17;1.60;;;17.80;42.70;;;;;;2525148;53;21014;-74
2023/06/07 04:00:59;;;;;;;3.00;1.60;;;17.80;42.80;;;;;;2512891;55;20973;-74
2023/06/07 04:03:29;;;;;;;3.25;1.70;;;17.70;42.80;;;;;;2521107;54;21000;-72
2023/06/07 04:05:57;;;;;;;2.72;1.40;;;17.70;43.00;;;;;;2286898;55;21032;-71
2023/06/07 04:08:36;;;;;;;2.80;1.60;;;17.70;43.00;;;;;;2521283;54;22078;-72
2023/06/07 04:11:06;;;;;;;3.78;1.48;;;17.70;43.20;;;;;;2518198;54;21569;-70
2023/06/07 04:13:41;;;;;;;2.85;1.70;;;17.60;43.10;;;;;;2519017;53;21042;-71
2023/06/07 04:16:08;;;;;;;3.20;1.33;;;17.60;43.20;;;;;;2514982;54;20985;-71
2023/06/07 04:18:41;;;;;;;2.95;1.65;;;17.60;43.30;;;;;;2520178;54;21068;-71
2023/06/07 04:21:20;;;;;;;3.20;1.67;;;17.60;43.80;;;;;;2270564;55;20970;-71
2023/06/07 04:24:34;;;;;;;2.53;1.23;;;17.50;43.90;;;;;;2275971;54;21613;-72
2023/06/07 04:27:11;;;;;;;2.75;1.27;;;17.50;43.90;;;;;;2300292;55;20982;-71
2023/06/07 04:29:48;;;;;;;2.83;1.60;;;17.50;43.80;;;;;;2521188;54;21451;-71
2023/06/07 04:32:34;;;;;;;2.83;1.42;;;17.50;44.00;;;;;;2512734;55;21399;-74
2023/06/07 04:35:16;;;;;;;3.50;1.80;;;17.50;43.90;;;;;;2522025;54;20978;-71
2023/06/07 04:38:01;;;;;;;3.97;1.70;;;17.50;44.00;;;;;;2521315;54;21045;-72
2023/06/07 04:40:31;;;;;;;2.55;1.27;;;17.50;44.50;;;;;;2269263;55;20933;-71
2023/06/07 04:43:05;;;;;;;3.10;1.45;;;17.50;44.10;;;;;;2523507;53;21030;-72
2023/06/07 04:45:41;;;;;;;3.72;2.10;;;17.50;44.20;;;;;;2522162;54;20970;-70
2023/06/07 04:48:58;;;;;;;5.37;1.90;;;17.50;44.60;;;;;;2288465;55;20956;-72
2023/06/07 04:51:25;;;;;;;3.10;1.60;;;17.60;45.10;;;;;;2283862;55;21012;-74
2023/06/07 04:54:01;;;;;;;3.72;1.85;;;17.50;44.40;;;;;;2520257;54;21415;-71
2023/06/07 04:56:43;;;;;;;3.58;2.00;;;17.50;44.50;;;;;;2313356;54;21000;-71
2023/06/07 04:59:18;;;;;;;2.92;1.73;;;17.40;44.90;;;;;;2553637;53;21726;-71
2023/06/07 05:01:53;;;;;;;3.30;1.75;;;17.50;44.80;;;;;;2554288;53;21735;-71
2023/06/07 05:04:26;;;;;;;5.28;2.22;;;17.50;44.90;;;;;;2314349;55;21397;-72
2023/06/07 05:06:58;;;;;;;3.12;1.90;;;17.50;45.10;;;;;;2314255;55;21030;-72
2023/06/07 05:09:26;;;;;;;4.00;2.42;;;17.50;45.20;;;;;;2553431;53;20948;-71
2023/06/07 05:12:06;;;;;;;3.30;1.70;;;17.50;45.30;;;;;;2554128;53;21424;-73
2023/06/07 05:14:32;;;;;;;4.10;1.70;;;17.60;45.50;;;;;;2552423;53;21408;-71
2023/06/07 05:16:59;;;;;;;3.78;1.83;;;17.60;45.40;;;;;;2554000;53;20971;-71
2023/06/07 05:19:33;;;;;;;3.40;1.77;;;17.60;45.50;;;;;;2314370;55;20999;-71
2023/06/07 05:21:59;;;;;;;3.23;1.67;;;17.70;45.70;;;;;;2315247;55;21420;-71
2023/06/07 05:24:32;;;;;;;7.07;2.67;;;17.60;45.50;;;;;;2313735;55;20928;-72
2023/06/07 05:27:07;;;;;;;3.87;1.90;;;17.70;46.00;;;;;;2550718;53;20930;-72
2023/06/07 05:29:35;;;;;;;3.83;2.00;;;17.80;45.80;;;;;;2548388;53;20955;-73
2023/06/07 05:32:14;;;;;;;3.53;1.60;;;17.80;45.90;;;;;;2551810;53;21031;-71
2023/06/07 05:34:45;;;;;;;2.90;1.55;;;17.90;45.90;;;;;;2549820;53;21063;-72
2023/06/07 05:37:12;;;;;;;3.17;1.80;;;17.90;45.90;;;;;;2315113;55;20900;-71
2023/06/07 05:39:40;;;;;;;2.85;1.67;;;17.90;45.90;;;;;;2512547;55;21924;-72
2023/06/07 05:42:12;;;;;;;3.60;1.67;;;18.00;46.10;;;;;;2521401;54;20954;-71
2023/06/07 05:44:40;;;;;;;4.20;1.80;;;18.00;46.20;;;;;;2521145;54;21906;-72
2023/06/07 05:47:07;;;;;;;3.33;1.98;;;18.10;46.20;;;;;;2522167;54;20998;-71
2023/06/07 05:49:33;;;;;;;3.20;1.60;;;18.10;46.20;;;;;;2521889;54;20938;-72
2023/06/07 05:52:01;;;;;;;3.35;1.73;;;18.20;46.30;;;;;;2521127;54;20963;-72
2023/06/07 05:54:27;;;;;;;3.22;2.12;;;18.20;46.30;;;;;;2539601;54;20932;-71
2023/06/07 05:56:55;;;;;;;3.87;2.10;;;18.30;46.50;;;;;;2293061;55;21039;-71
2023/06/07 05:59:22;;;;;;;3.12;1.80;;;18.30;46.50;;;;;;2288081;54;20910;-72
2023/06/07 06:01:50;;;;;;;4.15;2.03;;;18.40;46.50;;;;;;2287065;55;21066;-71
2023/06/07 06:04:17;;;;;;;3.15;1.98;;;18.40;46.60;;;;;;2286223;55;20989;-72
2023/06/07 06:06:44;;;;;;;3.55;2.03;;;18.50;46.70;;;;;;2519874;54;20986;-71
2023/06/07 06:09:21;;;;;;;3.62;1.95;;;18.50;46.80;;;;;;2523028;54;20931;-71
2023/06/07 06:11:47;;;;;;;3.22;1.75;;;18.60;47.00;;;;;;2521709;54;21006;-73
2023/06/07 06:14:13;;;;;;;3.30;1.85;;;18.70;46.90;;;;;;2529316;53;20979;-71
2023/06/07 06:16:41;;;;;;;3.55;1.92;;;18.70;46.90;;;;;;2521678;53;21025;-72
2023/06/07 06:19:11;;;;;;;3.85;2.10;;;18.80;47.00;;;;;;2293702;54;21008;-72
2023/06/07 06:21:37;;;;;;;3.47;2.22;;;18.80;47.10;;;;;;2292768;54;21082;-71
2023/06/07 06:24:08;;;;;;;3.95;1.90;;;18.90;47.20;;;;;;2288103;54;20991;-72
2023/06/07 06:26:34;;;;;;;3.42;1.90;;;18.90;47.20;;;;;;2287649;55;20990;-74
2023/06/07 06:29:09;;;;;;;3.70;2.03;;;19.00;47.20;;;;;;2522496;54;20952;-72
2023/06/07 06:31:44;;;;;;;3.47;2.25;;;19.10;47.40;;;;;;2286829;55;20923;-71
2023/06/07 06:34:12;;;;;;;4.15;2.40;;;19.20;47.80;;;;;;2288170;55;21082;-73
2023/06/07 06:36:38;;;;;;;5.45;2.33;;;19.20;47.50;;;;;;2287359;55;21070;-71
2023/06/07 06:39:08;;;;;;;4.25;2.05;;;19.30;47.70;;;;;;2293573;54;21316;-72
2023/06/07 06:41:35;;;;;;;4.05;2.22;;;19.30;47.60;;;;;;2521345;54;20966;-73
2023/06/07 06:44:01;;;;;;;3.30;2.00;;;19.40;47.70;;;;;;2288288;54;20972;-72
2023/06/07 06:46:28;;;;;;;3.72;2.40;;;19.50;47.80;;;;;;2288064;55;20985;-73
2023/06/07 06:48:54;;;;;;;4.07;2.25;;;19.50;47.80;;;;;;2291953;55;20951;-73
2023/06/07 06:51:28;;;;;;;5.43;2.40;;;19.60;47.90;;;;;;2520102;54;20926;-72
2023/06/07 06:53:55;;;;;;;3.28;2.17;;;19.70;48.10;;;;;;2520903;54;21025;-72
2023/06/07 06:56:22;;;;;;;4.30;2.22;;;19.80;48.10;;;;;;2521363;54;20989;-73
2023/06/07 06:58:48;;;;;;;4.22;2.70;;;19.80;48.70;;;;;;2521281;54;21065;-73
2023/06/07 07:01:15;;;;;;;6.20;2.80;;;19.90;48.10;;;;;;2522274;54;21001;-73
2023/06/07 07:03:41;;;;;;;4.30;2.42;;;20.00;48.10;;;;;;2286759;54;21073;-72
2023/06/07 07:06:08;;;;;;;4.20;2.45;;;20.10;48.20;;;;;;2521857;54;20934;-72
2023/06/07 07:08:46;;;;;;;4.12;2.47;;;20.20;48.20;;;;;;2531523;54;21507;-72
2023/06/07 07:11:15;;;;;;;3.25;1.92;;;20.20;48.20;;;;;;2296376;55;21022;-72
2023/06/07 07:13:42;;;;;;;3.15;1.83;;;20.30;48.10;;;;;;2287189;54;20999;-72
2023/06/07 07:16:16;;;;;;;3.62;2.22;;;20.40;48.30;;;;;;2525662;54;21023;-74
2023/06/07 07:18:43;;;;;;;5.22;2.33;;;20.50;48.50;;;;;;2535701;54;21109;-75
2023/06/07 07:21:09;;;;;;;4.32;2.20;;;20.50;48.30;;;;;;2521839;54;21009;-72
2023/06/07 07:23:36;;;;;;;4.35;2.65;;;20.60;48.30;;;;;;2518109;54;21001;-73
2023/06/07 07:26:03;;;;;;;3.40;2.00;;;20.70;48.40;;;;;;2516596;54;20985;-73
2023/06/07 07:28:31;;;;;;;4.07;2.33;;;20.80;48.50;;;;;;2295283;54;21388;-72
2023/06/07 07:30:57;;;;;;;4.18;2.10;;;20.90;48.50;;;;;;2515995;54;20974;-73
2023/06/07 07:33:27;;;;;;;4.45;1.92;;;21.00;48.40;;;;;;2537182;53;21930;-73
2023/06/07 07:35:54;;;;;;;3.20;1.85;;;21.10;48.40;;;;;;2516965;54;20990;-73
2023/06/07 07:38:23;;;;;;;3.83;2.25;;;21.10;48.40;;;;;;2518379;54;21043;-73
2023/06/07 07:40:53;;;;;;;3.97;2.20;;;21.20;48.50;;;;;;2287434;55;20996;-73
2023/06/07 07:43:22;;;;;;;3.58;2.35;;;21.30;48.40;;;;;;2287083;55;21408;-73
2023/06/07 07:45:51;;;;;;;4.95;2.10;;;21.40;48.40;;;;;;2521710;54;20973;-73
2023/06/07 07:48:18;;;;;;;3.20;1.90;;;21.50;48.30;;;;;;2521882;54;20930;-74
2023/06/07 07:50:48;;;;;;;3.17;1.73;;;21.60;48.20;;;;;;2521532;54;20950;-73
2023/06/07 07:53:15;;;;;;;4.65;2.22;;;21.70;48.30;;;;;;2287466;54;21010;-73
2023/06/07 07:55:41;;;;;;;4.05;2.33;;;21.70;48.20;;;;;;2285613;55;20970;-73
2023/06/07 07:58:08;;;;;;;4.30;2.10;;;21.80;48.20;;;;;;2521857;54;20998;-74
2023/06/07 08:00:34;;;;;;;3.28;1.80;;;21.90;48.20;;;;;;2521776;54;21010;-73
2023/06/07 08:03:03;;;;;;;3.87;2.35;;;22.00;48.10;;;;;;2522007;54;21424;-73
2023/06/07 08:05:29;;;;;;;3.67;2.10;;;22.10;48.20;;;;;;2520597;54;20993;-73
2023/06/07 08:07:57;;;;;;;4.62;2.25;;;22.20;48.10;;;;;;2286783;55;21027;-75
2023/06/07 08:10:25;;;;;;;3.65;2.35;;;22.30;48.00;;;;;;2519218;54;20977;-73
2023/06/07 08:13:03;;;;;;;4.20;2.58;;;22.30;47.90;;;;;;2281386;54;21135;-73
2023/06/07 08:15:48;;;;;;;3.65;1.90;;;22.50;48.00;;;;;;2531902;54;20994;-73
2023/06/07 08:18:24;;;;;;;4.00;2.22;;;22.50;48.00;;;;;;2512701;54;20970;-73
2023/06/07 08:21:03;;;;;;;2.95;1.70;;;22.60;47.70;;;;;;2505024;54;21444;-74
2023/06/07 08:23:44;;;;;;;10.75;2.72;;;22.70;47.80;;;;;;2497985;54;21016;-74
2023/06/07 08:27:08;;;;;;;4.50;1.98;;;22.80;47.70;;;;;;2414135;56;21560;-73
2023/06/07 08:30:08;;;;;;;3.65;1.73;;;22.90;47.70;;;;;;2438040;56;21046;-73
2023/06/07 08:32:51;;;;;;;4.90;2.00;;;23.00;47.50;;;;;;2446411;56;21011;-73
2023/06/07 09:12:49;;;;;;;2.90;1.30;;;24.20;46.90;;;;;;2333142;58;21016;-73
2023/06/07 10:07:19;;;;;;;3.47;1.10;;;26.00;45.40;;;;;;2441187;55;20996;-72
2023/06/07 10:47:23;;;;;;;;;;;;;;;;;;;;;
2023/06/07 10:50:18;;;;;;;;;;;;;;;;;;;;;
2023/06/07 11:15:13;;;;;;;4.40;1.30;;;27.50;42.00;;;;;;2423480;55;21036;-74
2023/06/07 11:22:20;;;;;;;2.70;1.27;;;27.80;42.10;;;;;;2350345;56;28492;-75
2023/06/07 11:25:32;;;;;;;;;;;;;;;;;;;;;
2023/06/07 11:44:40;;;;;;;2.75;1.10;;;28.10;40.30;;;;;;2232709;60;21077;-75
2023/06/07 11:48:26;;;;;;;2.55;1.23;;;28.40;39.70;;;;;;2261332;60;21087;-75
2023/06/07 12:32:26;;;;;;;2.30;0.90;;;29.00;38.90;;;;;;2129985;59;21024;-75
2023/06/07 13:16:58;;;;;;;2.40;1.02;;;29.00;37.80;;;;;;2364393;57;21548;-74
2023/06/07 13:24:02;;;;;;;;;;;29.70;36.30;;;;;;2367920;57;20980;-76
2023/06/07 13:29:09;;;;;;;9.98;1.40;;;29.70;36.70;;;;;;2364942;58;20170;-74
2023/06/07 13:38:37;;;;;;;;;;;;;;;;;;;;;
2023/06/07 13:42:46;;;;;;;2.40;1.17;;;29.80;34.80;;;;;;2326430;58;21552;-75
2023/06/07 14:55:44;;;;;;;;;;;;;;;;;;;;;
2023/06/07 14:59:24;;;;;;;2.60;1.20;;;30.30;34.70;;;;;;2551168;52;27865;-76
2023/06/07 15:17:40;;;;;;;1.67;0.80;;;30.60;33.60;;;;;;2227836;56;21022;-75
2023/06/07 16:05:19;;;;;;;1.80;0.80;;;30.50;32.30;;;;;;2530461;53;20970;-75
2023/06/07 16:10:44;;;;;;;2.53;1.12;;;30.40;31.90;;;;;;2545879;53;20989;-75
2023/06/07 16:35:19;;;;;;;2.10;0.80;;;30.30;32.00;;;;;;2493037;54;21019;-75
2023/06/07 16:42:14;;;;;;;1.50;0.75;;;29.90;32.10;;;;;;2406574;55;21021;-76
2023/06/07 16:45:40;;;;;;;1.65;0.73;;;29.80;32.10;;;;;;2438255;54;21014;-74
2023/06/07 16:54:31;;;;;;;2.05;0.90;;;29.70;32.30;;;;;;2340082;57;21064;-75
2023/06/07 16:58:05;;;;;;;2.58;1.20;;;29.70;32.50;;;;;;2366895;57;21528;-72
2023/06/07 17:04:24;;;;;;;2.10;0.93;;;29.70;32.50;;;;;;2123709;59;21834;-75
2023/06/07 17:46:22;;;;;;;2.20;1.10;;;29.10;33.30;;;;;;2241259;55;28287;-75
2023/06/07 17:49:28;;;;;;;2.12;0.93;;;29.00;33.80;;;;;;2204881;57;21042;-75
2023/06/07 17:53:00;;;;;;;;;;;;;;;;;;;;;
2023/06/07 17:57:14;;;;;;;1.90;1.00;;;28.90;34.00;;;;;;2408287;56;21850;-75
2023/06/07 18:00:35;;;;;;;2.50;0.90;;;28.90;34.40;;;;;;2386955;56;21085;-75
2023/06/07 18:03:45;;;;;;;1.98;1.10;;;28.90;35.30;;;;;;2423715;57;21035;-77
2023/06/07 18:07:21;;;;;;;2.90;1.17;;;29.00;35.20;;;;;;2422321;56;20996;-76
2023/06/07 18:14:07;;;;;;;;;;;;;;;;;;;;;
2023/06/07 18:22:59;;;;;;;2.20;1.10;;;29.40;35.30;;;;;;2425797;55;21856;-76
2023/06/07 18:26:32;;;;;;;1.73;0.82;;;29.60;35.30;;;;;;2195675;56;21048;-74
2023/06/07 19:12:48;;;;;;;1.55;0.82;;;29.90;34.70;;;;;;2389211;56;21002;-74
2023/06/07 19:21:15;;;;;;;1.80;0.62;;;29.10;34.50;;;;;;2394205;55;20987;-76
2023/06/07 19:25:23;;;;;;;1.67;0.80;;;28.90;34.90;;;;;;2384496;56;21716;-75
2023/06/07 19:30:48;;;;;;;;;;;;;;;;;;;;;
2023/06/07 19:34:52;;;;;;;2.40;0.90;;;28.40;35.10;;;;;;1721870;56;40667299;-75
2023/06/07 19:44:37;;;;;;;2.10;1.00;;;28.20;35.20;;;;;;2378669;56;21036;-75
2023/06/07 19:47:48;;;;;;;1.47;0.70;;;28.00;35.30;;;;;;2370498;57;21578;-75
2023/06/07 19:51:12;;;;;;;1.90;0.82;;;27.50;35.30;;;;;;2324519;58;21051;-75
2023/06/07 20:16:21;;;;;;;;;;;;;;;;;;;;;
2023/06/07 20:30:56;;;;;;;2.50;0.68;;;26.10;36.00;;;;;;2231878;60;21099;-74
2023/06/07 20:34:21;;;;;;;;;;;;;;;;;;;;;
2023/06/07 21:13:54;;;;;;;2.40;1.05;;;25.00;37.30;;;;;;2463488;54;29664;-73
2023/06/07 21:16:39;;;;;;;3.15;1.10;;;23.80;38.30;;;;;;2472635;55;20958;-73
2023/06/07 21:19:05;;;;;;;2.37;1.15;;;23.60;38.10;;;;;;2459685;55;21578;-72
2023/06/07 21:21:43;;;;;;;2.45;1.00;;;23.60;38.30;;;;;;2439557;55;21759;-74
2023/06/07 21:24:09;;;;;;;2.12;1.00;;;23.50;38.40;;;;;;2463156;55;21305;-73
2023/06/07 21:26:39;;;;;;;2.03;1.00;;;23.40;38.50;;;;;;2461232;55;21065;-73
2023/06/07 21:29:05;;;;;;;2.80;1.15;;;23.40;38.70;;;;;;2489751;54;21463;-74
2023/06/07 21:31:33;;;;;;;2.45;1.12;;;23.30;38.60;;;;;;2473390;55;21095;-72
2023/06/07 21:34:02;;;;;;;2.62;1.25;;;23.20;38.70;;;;;;2451824;55;21337;-73
2023/06/07 21:36:29;;;;;;;2.47;1.10;;;23.20;38.90;;;;;;2250121;55;20970;-73
2023/06/07 21:38:56;;;;;;;2.78;1.27;;;23.20;39.00;;;;;;2233920;55;21804;-72
2023/06/07 21:41:23;;;;;;;4.07;1.33;;;23.10;39.20;;;;;;2433453;55;21807;-72
2023/06/07 21:43:49;;;;;;;2.87;1.40;;;23.00;39.40;;;;;;2235504;54;20966;-72
2023/06/07 21:46:16;;;;;;;2.75;1.42;;;22.90;39.50;;;;;;2231219;54;21472;-73
2023/06/07 21:48:43;;;;;;;2.10;1.05;;;22.90;39.60;;;;;;2214282;55;20965;-74
2023/06/07 21:51:12;;;;;;;2.42;1.10;;;22.80;39.60;;;;;;2433583;55;20998;-72
2023/06/07 21:53:39;;;;;;;2.97;1.42;;;22.80;39.70;;;;;;2432645;55;21484;-72
2023/06/07 21:56:05;;;;;;;2.40;1.30;;;22.70;39.70;;;;;;2433632;55;21810;-72
2023/06/07 21:58:32;;;;;;;2.17;1.10;;;22.60;39.70;;;;;;2433026;55;20964;-74
2023/06/07 22:00:58;;;;;;;2.30;1.12;;;22.60;39.80;;;;;;2215306;55;21398;-72
2023/06/07 22:03:34;;;;;;;2.22;1.10;;;22.60;39.90;;;;;;2214849;55;21005;-73
2023/06/07 22:06:03;;;;;;;2.60;1.30;;;22.50;40.30;;;;;;2433621;55;20935;-72
2023/06/07 22:08:29;;;;;;;2.60;1.20;;;22.50;40.20;;;;;;2460714;54;21023;-73
2023/06/07 22:10:56;;;;;;;2.40;1.12;;;22.50;40.20;;;;;;2464697;54;20951;-72
2023/06/07 22:13:22;;;;;;;2.60;1.20;;;22.40;40.20;;;;;;2463924;54;20931;-72
2023/06/07 22:15:50;;;;;;;2.58;1.17;;;22.40;40.30;;;;;;2464163;54;20962;-73
2023/06/07 22:18:20;;;;;;;2.10;1.02;;;22.30;40.30;;;;;;2457932;54;21051;-71
2023/06/07 22:20:55;;;;;;;3.03;1.40;;;22.30;40.40;;;;;;2463866;54;20955;-73
2023/06/07 22:23:22;;;;;;;2.50;1.08;;;22.30;40.50;;;;;;2464001;54;20992;-73
2023/06/07 22:25:49;;;;;;;2.50;1.10;;;22.20;40.40;;;;;;2463660;54;21084;-72
2023/06/07 22:28:18;;;;;;;2.50;1.17;;;22.20;40.50;;;;;;2463578;54;20955;-73
2023/06/07 22:30:44;;;;;;;2.17;1.17;;;22.10;40.60;;;;;;2238720;55;20943;-72
2023/06/07 22:33:11;;;;;;;2.22;1.15;;;22.10;40.80;;;;;;2463444;54;20987;-74
2023/06/07 22:35:39;;;;;;;2.72;1.30;;;22.00;40.70;;;;;;2238770;55;21034;-72
2023/06/07 22:38:11;;;;;;;2.70;1.40;;;22.00;40.80;;;;;;2463451;54;20955;-72
2023/06/07 22:40:39;;;;;;;2.70;1.30;;;21.90;40.80;;;;;;2487307;54;21023;-72
2023/06/07 22:43:06;;;;;;;2.53;1.30;;;21.90;40.90;;;;;;2248551;55;21005;-74
2023/06/07 22:45:33;;;;;;;2.83;1.20;;;21.90;41.00;;;;;;2237722;55;20985;-74
2023/06/07 22:48:09;;;;;;;2.60;1.20;;;21.90;41.10;;;;;;2245156;55;20969;-72
2023/06/07 22:50:39;;;;;;;2.70;1.30;;;21.90;41.50;;;;;;2454150;54;20961;-73
2023/06/07 22:53:06;;;;;;;2.33;1.10;;;21.80;41.50;;;;;;2249122;55;21046;-72
2023/06/07 22:55:34;;;;;;;3.10;1.50;;;21.80;41.50;;;;;;2213855;56;21527;-74
2023/06/07 22:58:03;;;;;;;2.55;1.25;;;21.80;41.50;;;;;;2431199;55;21042;-72
2023/06/07 23:00:29;;;;;;;2.50;1.10;;;21.80;41.60;;;;;;2430767;55;21470;-72
2023/06/07 23:02:57;;;;;;;2.45;1.17;;;21.80;41.60;;;;;;2430879;55;20930;-72
2023/06/07 23:05:26;;;;;;;2.70;1.23;;;21.80;41.70;;;;;;2430745;55;20954;-73
2023/06/07 23:07:56;;;;;;;2.37;1.20;;;21.80;41.80;;;;;;2430337;55;20945;-72
2023/06/07 23:10:32;;;;;;;2.90;1.30;;;21.80;42.00;;;;;;2429979;55;20973;-72
2023/06/07 23:13:17;;;;;;;2.20;1.10;;;21.80;41.90;;;;;;2235242;55;20990;-72
2023/06/07 23:15:45;;;;;;;2.10;1.05;;;21.80;41.90;;;;;;2488370;55;21274;-72
2023/06/07 23:18:14;;;;;;;2.28;1.10;;;21.70;41.90;;;;;;2254169;55;20926;-72
2023/06/07 23:20:41;;;;;;;2.50;1.30;;;21.70;42.10;;;;;;2458198;55;20994;-72
2023/06/07 23:23:10;;;;;;;2.87;1.50;;;21.70;42.20;;;;;;2451809;55;20954;-72
2023/06/07 23:25:36;;;;;;;3.10;1.58;;;21.80;42.40;;;;;;2242500;55;20976;-72
2023/06/07 23:28:03;;;;;;;2.92;1.58;;;21.70;42.30;;;;;;2469745;55;21017;-72
2023/06/07 23:30:30;;;;;;;3.85;1.27;;;21.80;42.40;;;;;;2479814;55;21102;-72
2023/06/07 23:32:56;;;;;;;2.20;1.30;;;21.80;42.50;;;;;;2459563;55;20907;-72
2023/06/07 23:35:23;;;;;;;2.80;1.48;;;21.70;42.50;;;;;;2451871;55;20985;-73
2023/06/07 23:37:50;;;;;;;2.50;1.27;;;21.70;42.90;;;;;;2439182;55;21861;-72
2023/06/07 23:40:18;;;;;;;3.22;1.85;;;21.70;42.60;;;;;;2230134;55;20946;-72
2023/06/07 23:42:45;;;;;;;2.37;1.25;;;21.70;42.70;;;;;;2253575;55;20984;-73
2023/06/07 23:45:11;;;;;;;3.03;1.33;;;21.70;42.80;;;;;;2460038;55;21101;-72
2023/06/07 23:48:16;;;;;;;2.75;1.27;;;21.70;42.80;;;;;;2448847;55;20996;-72
2023/06/07 23:50:42;;;;;;;2.50;1.30;;;21.70;43.20;;;;;;2230585;55;21063;-72
2023/06/07 23:53:09;;;;;;;2.42;1.33;;;21.70;42.70;;;;;;2227041;55;21766;-72
2023/06/07 23:55:36;;;;;;;3.58;1.48;;;21.70;42.80;;;;;;2438673;55;20971;-73
2023/06/07 23:58:02;;;;;;;3.20;1.52;;;21.60;42.90;;;;;;2434966;55;21018;-73
